Time;durP1;ratioP1;P1;durP2;ratioP2;P2;SDS_P1;SDS_P2;PMS_P1;PMS_P2;Temp;Humidity;BMP_temperature;BMP_pressure;BME280_temperature;BME280_humidity;BME280_pressure;Samples;Min_cycle;Max_cycle;Signal;HPM_P1;HPM_P2
2022/08/24 00:00:00;;;;;;;9.70;9.05;;;;;;;;;;5032299;28;20614;-63
2022/08/24 00:02:25;;;;;;;9.60;9.00;;;;;;;;;;5036006;28;20029;-63
2022/08/24 00:04:52;;;;;;;10.35;9.75;;;;;;;;;;5036578;28;20029;-63
2022/08/24 00:07:18;;;;;;;10.13;9.43;;;;;;;;;;5038913;28;20029;-63
2022/08/24 00:09:45;;;;;;;11.05;10.35;;;;;;;;;;5032190;28;20033;-63
2022/08/24 00:12:12;;;;;;;8.70;8.10;;;;;;;;;;5033860;28;20036;-63
2022/08/24 00:14:38;;;;;;;10.98;10.27;;;;;;;;;;5031325;28;20051;-63
2022/08/24 00:17:04;;;;;;;8.68;8.07;;;;;;;;;;5036370;28;20033;-63
2022/08/24 00:19:29;;;;;;;9.18;8.48;;;;;;;;;;5033325;28;20114;-63
2022/08/24 00:21:55;;;;;;;9.52;8.93;;;;;;;;;;5034555;28;20038;-63
2022/08/24 00:24:20;;;;;;;10.30;9.60;;;;;;;;;;5033201;28;20035;-63
2022/08/24 00:26:46;;;;;;;10.68;9.98;;;;;;;;;;5031466;28;20680;-63
2022/08/24 00:29:16;;;;;;;10.60;9.80;;;;;;;;;;5034098;28;20025;-63
2022/08/24 00:31:42;;;;;;;8.23;7.73;;;;;;;;;;5032787;28;20411;-63
2022/08/24 00:34:08;;;;;;;9.27;8.68;;;;;;;;;;5035445;28;20017;-62
2022/08/24 00:36:33;;;;;;;11.95;11.23;;;;;;;;;;5034040;28;20051;-63
2022/08/24 00:38:59;;;;;;;11.30;10.52;;;;;;;;;;5036706;28;20049;-63
2022/08/24 00:41:25;;;;;;;10.25;9.65;;;;;;;;;;5037554;28;20029;-63
2022/08/24 00:43:53;;;;;;;12.38;11.57;;;;;;;;;;5031150;28;20033;-63
2022/08/24 00:46:29;;;;;;;11.35;10.65;;;;;;;;;;5036945;28;20021;-63
2022/08/24 00:49:03;;;;;;;8.95;8.35;;;;;;;;;;5035190;28;20065;-63
2022/08/24 00:51:35;;;;;;;14.13;13.25;;;;;;;;;;5035327;28;20050;-63
2022/08/24 00:54:06;;;;;;;8.15;7.65;;;;;;;;;;5033029;28;20036;-63
2022/08/24 00:56:36;;;;;;;8.88;8.27;;;;;;;;;;5034890;28;20442;-64
2022/08/24 00:59:10;;;;;;;7.95;7.45;;;;;;;;;;5036097;28;20044;-64
2022/08/24 01:01:37;;;;;;;10.70;10.00;;;;;;;;;;5035025;28;20040;-64
2022/08/24 01:04:04;;;;;;;9.20;8.60;;;;;;;;;;5038997;28;20475;-63
2022/08/24 01:06:32;;;;;;;11.40;10.70;;;;;;;;;;5037171;28;20442;-64
2022/08/24 01:08:58;;;;;;;12.25;11.52;;;;;;;;;;5037591;28;20041;-64
2022/08/24 01:11:26;;;;;;;14.32;13.52;;;;;;;;;;5039667;28;20115;-63
2022/08/24 01:13:52;;;;;;;13.57;12.77;;;;;;;;;;5039409;28;20037;-63
2022/08/24 01:18:48;;;;;;;14.10;13.30;;;;;;;;;;5041662;28;20112;-62
2022/08/24 01:19:28;;;;;;;15.45;14.55;;;;;;;;;;5037164;28;20172;-62
2022/08/24 01:22:06;;;;;;;13.98;13.18;;;;;;;;;;5037580;28;20029;-62
2022/08/24 01:24:34;;;;;;;14.02;13.23;;;;;;;;;;5034442;28;20037;-64
2022/08/24 01:27:00;;;;;;;15.07;14.18;;;;;;;;;;5036530;28;20029;-63
2022/08/24 01:29:30;;;;;;;16.00;15.10;;;;;;;;;;5038169;28;20044;-63
2022/08/24 01:31:56;;;;;;;15.50;14.60;;;;;;;;;;5039360;28;20124;-63
2022/08/24 01:34:21;;;;;;;15.02;14.15;;;;;;;;;;5038078;28;20040;-64
2022/08/24 01:36:49;;;;;;;16.38;15.38;;;;;;;;;;5040454;28;20033;-63
2022/08/24 01:39:20;;;;;;;16.13;15.23;;;;;;;;;;5035541;28;20426;-64
2022/08/24 01:41:45;;;;;;;14.85;14.00;;;;;;;;;;5036867;28;20040;-63
2022/08/24 01:44:12;;;;;;;17.38;16.38;;;;;;;;;;5035839;28;20025;-63
2022/08/24 01:46:41;;;;;;;14.13;13.32;;;;;;;;;;5035889;28;20029;-63
2022/08/24 01:49:07;;;;;;;14.52;13.63;;;;;;;;;;5039692;28;20060;-63
2022/08/24 01:51:32;;;;;;;14.63;13.82;;;;;;;;;;5038953;28;20571;-63
2022/08/24 01:54:01;;;;;;;18.52;17.48;;;;;;;;;;5036990;28;20143;-63
2022/08/24 01:56:27;;;;;;;16.00;15.10;;;;;;;;;;5034825;28;20029;-63
2022/08/24 01:58:53;;;;;;;17.10;16.10;;;;;;;;;;5031716;28;20030;-63
2022/08/24 02:01:18;;;;;;;15.18;14.27;;;;;;;;;;5027386;28;20322;-63
2022/08/24 02:03:44;;;;;;;15.52;14.63;;;;;;;;;;5034236;28;20107;-63
2022/08/24 02:06:10;;;;;;;19.67;18.58;;;;;;;;;;5032345;28;20369;-63
2022/08/24 02:08:35;;;;;;;17.10;16.10;;;;;;;;;;5034343;28;20060;-63
2022/08/24 02:11:07;;;;;;;19.55;18.35;;;;;;;;;;5034854;28;20025;-64
2022/08/24 02:13:34;;;;;;;18.20;17.20;;;;;;;;;;5036627;28;20032;-63
2022/08/24 02:16:00;;;;;;;21.15;19.95;;;;;;;;;;5036860;28;20108;-63
2022/08/24 02:18:25;;;;;;;19.38;18.27;;;;;;;;;;5037662;28;20108;-64
2022/08/24 02:20:52;;;;;;;17.85;16.75;;;;;;;;;;5035641;28;20502;-64
2022/08/24 02:23:17;;;;;;;18.55;17.55;;;;;;;;;;5036775;28;20017;-63
2022/08/24 02:25:43;;;;;;;17.48;16.48;;;;;;;;;;5038014;28;20188;-63
2022/08/24 02:28:08;;;;;;;14.73;13.88;;;;;;;;;;5038794;28;20526;-63
2022/08/24 02:30:33;;;;;;;14.32;13.52;;;;;;;;;;5040282;28;20053;-63
2022/08/24 02:32:59;;;;;;;16.13;15.23;;;;;;;;;;5037953;28;20383;-63
2022/08/24 02:35:25;;;;;;;15.60;14.70;;;;;;;;;;5034883;28;20036;-63
2022/08/24 02:37:51;;;;;;;17.45;16.45;;;;;;;;;;5035923;28;20398;-63
2022/08/24 02:40:16;;;;;;;17.60;16.60;;;;;;;;;;5033519;28;20112;-63
2022/08/24 02:42:41;;;;;;;17.77;16.77;;;;;;;;;;5036499;28;20057;-63
2022/08/24 02:45:08;;;;;;;17.25;16.25;;;;;;;;;;5034343;28;20048;-63
2022/08/24 02:47:35;;;;;;;20.63;19.08;;;;;;;;;;5037357;28;20034;-62
2022/08/24 02:50:01;;;;;;;18.27;17.27;;;;;;;;;;5036461;28;20484;-62
2022/08/24 02:52:28;;;;;;;18.30;17.27;;;;;;;;;;5036881;28;20044;-62
2022/08/24 02:54:53;;;;;;;18.50;17.50;;;;;;;;;;5033177;28;20048;-62
2022/08/24 02:57:18;;;;;;;15.15;14.25;;;;;;;;;;5037039;28;20021;-63
2022/08/24 02:59:44;;;;;;;17.67;16.67;;;;;;;;;;5036079;28;20021;-63
2022/08/24 03:02:09;;;;;;;16.45;15.55;;;;;;;;;;5034814;28;20389;-63
2022/08/24 03:04:34;;;;;;;16.52;15.60;;;;;;;;;;5037264;28;20484;-63
2022/08/24 03:07:00;;;;;;;18.38;17.27;;;;;;;;;;5037935;28;20531;-63
2022/08/24 03:09:25;;;;;;;16.60;15.68;;;;;;;;;;5033553;28;20114;-63
2022/08/24 03:11:50;;;;;;;18.67;17.60;;;;;;;;;;5037800;28;20037;-63
2022/08/24 03:14:17;;;;;;;20.90;19.17;;;;;;;;;;5037978;28;20037;-63
2022/08/24 03:16:44;;;;;;;16.13;15.23;;;;;;;;;;5035770;28;20039;-63
2022/08/24 03:19:10;;;;;;;15.50;14.60;;;;;;;;;;5035788;28;20067;-63
2022/08/24 03:21:35;;;;;;;15.15;14.25;;;;;;;;;;5035997;28;20050;-63
2022/08/24 03:24:01;;;;;;;16.55;15.65;;;;;;;;;;5037441;28;20415;-63
2022/08/24 03:26:26;;;;;;;17.42;16.42;;;;;;;;;;5036454;28;20033;-63
2022/08/24 03:28:51;;;;;;;14.50;13.63;;;;;;;;;;5035334;28;20030;-63
2022/08/24 03:31:17;;;;;;;12.07;11.38;;;;;;;;;;5035635;28;20025;-62
2022/08/24 03:33:42;;;;;;;16.73;15.73;;;;;;;;;;5034889;28;20105;-62
2022/08/24 03:36:08;;;;;;;13.85;13.05;;;;;;;;;;5037512;28;20028;-62
2022/08/24 03:38:33;;;;;;;15.38;14.50;;;;;;;;;;5038033;28;20470;-63
2022/08/24 03:40:59;;;;;;;15.52;14.63;;;;;;;;;;5036108;28;20021;-62
2022/08/24 03:46:10;;;;;;;12.93;12.20;;;;;;;;;;5035511;28;20417;-62
2022/08/24 03:48:36;;;;;;;14.45;13.65;;;;;;;;;;5033803;28;20097;-62
2022/08/24 03:51:01;;;;;;;16.90;15.98;;;;;;;;;;5034150;28;20052;-62
2022/08/24 03:53:27;;;;;;;14.10;13.20;;;;;;;;;;5034416;28;20029;-62
2022/08/24 03:55:52;;;;;;;15.68;14.70;;;;;;;;;;5035781;28;20044;-62
2022/08/24 03:58:18;;;;;;;11.35;10.65;;;;;;;;;;5034899;28;20055;-62
2022/08/24 04:00:43;;;;;;;11.35;10.65;;;;;;;;;;5035118;28;20676;-62
2022/08/24 04:03:10;;;;;;;12.73;12.02;;;;;;;;;;5032192;28;20335;-62
2022/08/24 04:05:36;;;;;;;11.27;10.57;;;;;;;;;;5020611;28;20718;-62
2022/08/24 04:08:03;;;;;;;10.75;10.05;;;;;;;;;;5034346;28;20133;-62
2022/08/24 04:10:29;;;;;;;10.32;9.63;;;;;;;;;;5031383;28;20037;-61
2022/08/24 04:12:54;;;;;;;10.40;9.80;;;;;;;;;;5037276;28;20033;-61
2022/08/24 04:15:19;;;;;;;9.50;8.90;;;;;;;;;;5032462;28;20033;-61
2022/08/24 04:17:45;;;;;;;11.10;10.20;;;;;;;;;;5034614;28;20104;-61
2022/08/24 04:20:10;;;;;;;8.50;7.90;;;;;;;;;;5034838;28;20040;-62
2022/08/24 04:22:36;;;;;;;8.55;7.95;;;;;;;;;;5037385;28;20067;-62
2022/08/24 04:25:02;;;;;;;9.23;8.63;;;;;;;;;;5035475;28;20091;-62
2022/08/24 04:27:28;;;;;;;7.43;6.93;;;;;;;;;;5034175;28;20098;-62
2022/08/24 04:29:53;;;;;;;8.70;8.15;;;;;;;;;;5036305;28;20040;-62
2022/08/24 04:32:18;;;;;;;7.50;7.00;;;;;;;;;;5036163;28;20025;-62
2022/08/24 04:34:45;;;;;;;9.35;8.75;;;;;;;;;;5034830;28;20040;-62
2022/08/24 04:37:11;;;;;;;7.75;7.25;;;;;;;;;;5036843;28;20043;-61
2022/08/24 04:39:37;;;;;;;7.30;6.80;;;;;;;;;;5035015;28;20033;-61
2022/08/24 04:42:04;;;;;;;8.48;7.88;;;;;;;;;;5038781;28;20041;-61
2022/08/24 04:44:30;;;;;;;8.40;7.78;;;;;;;;;;5036962;28;20123;-61
2022/08/24 04:46:55;;;;;;;8.10;7.60;;;;;;;;;;5038904;28;20187;-61
2022/08/24 04:49:21;;;;;;;8.25;7.65;;;;;;;;;;5034989;28;20052;-60
2022/08/24 04:51:46;;;;;;;8.43;7.88;;;;;;;;;;5038685;28;20069;-62
2022/08/24 04:54:12;;;;;;;7.95;7.45;;;;;;;;;;5036873;28;20175;-62
2022/08/24 04:56:37;;;;;;;8.48;7.95;;;;;;;;;;5039401;28;20144;-62
2022/08/24 04:59:04;;;;;;;8.25;7.75;;;;;;;;;;5041671;28;20578;-62
2022/08/24 05:01:31;;;;;;;8.63;8.07;;;;;;;;;;5037101;28;20488;-62
2022/08/24 05:03:57;;;;;;;8.63;8.05;;;;;;;;;;5038644;28;20025;-62
2022/08/24 05:06:26;;;;;;;9.60;8.90;;;;;;;;;;5036602;28;20033;-62
2022/08/24 05:08:52;;;;;;;9.70;9.10;;;;;;;;;;5036043;28;20029;-62
2022/08/24 05:11:18;;;;;;;9.77;9.18;;;;;;;;;;5039305;28;20071;-62
2022/08/24 05:13:44;;;;;;;11.57;10.88;;;;;;;;;;5039402;28;20040;-62
2022/08/24 05:16:16;;;;;;;11.65;10.95;;;;;;;;;;5037584;28;20040;-62
2022/08/24 05:18:42;;;;;;;11.63;10.93;;;;;;;;;;5036097;28;20108;-62
2022/08/24 05:21:09;;;;;;;11.60;10.90;;;;;;;;;;5038086;28;20594;-62
2022/08/24 05:23:36;;;;;;;12.55;11.85;;;;;;;;;;5038742;28;20041;-62
2022/08/24 05:26:15;;;;;;;11.27;10.57;;;;;;;;;;5036554;28;20028;-62
2022/08/24 05:28:42;;;;;;;12.10;11.40;;;;;;;;;;5038360;28;20117;-62
2022/08/24 05:31:09;;;;;;;11.80;11.10;;;;;;;;;;5039906;28;20028;-62
2022/08/24 05:33:35;;;;;;;14.88;13.98;;;;;;;;;;5039365;28;20029;-61
2022/08/24 05:36:01;;;;;;;14.40;13.40;;;;;;;;;;5039580;28;20036;-62
2022/08/24 05:38:26;;;;;;;11.93;11.23;;;;;;;;;;5037969;28;20350;-62
2022/08/24 05:40:51;;;;;;;14.88;14.02;;;;;;;;;;5038568;28;20059;-61
2022/08/24 05:43:17;;;;;;;18.10;17.10;;;;;;;;;;5037087;28;20056;-61
2022/08/24 05:45:43;;;;;;;17.17;16.23;;;;;;;;;;5037164;28;20116;-61
2022/08/24 05:48:08;;;;;;;11.38;10.68;;;;;;;;;;5035117;28;20468;-61
2022/08/24 05:50:34;;;;;;;13.02;12.25;;;;;;;;;;5034790;28;20034;-61
2022/08/24 05:52:59;;;;;;;12.98;12.25;;;;;;;;;;5038002;28;20137;-61
2022/08/24 05:55:24;;;;;;;12.85;12.07;;;;;;;;;;5034370;28;20045;-61
2022/08/24 05:57:50;;;;;;;13.70;12.85;;;;;;;;;;5040090;28;20075;-61
2022/08/24 06:00:16;;;;;;;16.10;15.20;;;;;;;;;;5037546;28;20619;-61
2022/08/24 06:02:42;;;;;;;14.77;13.98;;;;;;;;;;5034970;28;20263;-61
2022/08/24 06:05:08;;;;;;;14.25;13.45;;;;;;;;;;5041300;28;20527;-61
2022/08/24 06:07:34;;;;;;;15.48;14.57;;;;;;;;;;5038279;28;20199;-61
2022/08/24 06:09:59;;;;;;;12.38;11.68;;;;;;;;;;5040728;28;20108;-61
2022/08/24 06:12:24;;;;;;;14.23;13.43;;;;;;;;;;5036020;28;20044;-61
2022/08/24 06:14:50;;;;;;;15.30;14.40;;;;;;;;;;5033351;28;20359;-61
2022/08/24 06:17:15;;;;;;;14.50;13.65;;;;;;;;;;5036512;28;20633;-61
2022/08/24 06:19:42;;;;;;;14.52;13.68;;;;;;;;;;5033753;28;20048;-62
2022/08/24 06:22:08;;;;;;;15.68;14.75;;;;;;;;;;5036383;28;20198;-61
2022/08/24 06:27:19;;;;;;;13.95;13.15;;;;;;;;;;5033875;28;20034;-61
2022/08/24 06:29:45;;;;;;;15.32;14.43;;;;;;;;;;5037704;28;20591;-61
2022/08/24 06:32:11;;;;;;;15.13;14.27;;;;;;;;;;5036202;28;20017;-61
2022/08/24 06:34:38;;;;;;;16.35;15.43;;;;;;;;;;5036253;28;20353;-61
2022/08/24 06:37:04;;;;;;;17.63;16.63;;;;;;;;;;5033588;28;20099;-61
2022/08/24 06:39:29;;;;;;;17.65;16.65;;;;;;;;;;5036841;28;20037;-61
2022/08/24 06:41:55;;;;;;;15.70;14.82;;;;;;;;;;5034666;28;20038;-61
2022/08/24 06:44:20;;;;;;;16.48;15.55;;;;;;;;;;5032729;28;20029;-61
2022/08/24 06:46:45;;;;;;;22.00;20.80;;;;;;;;;;5039151;28;20029;-62
2022/08/24 06:49:11;;;;;;;21.00;19.90;;;;;;;;;;5040234;28;20045;-62
2022/08/24 06:51:36;;;;;;;20.27;19.17;;;;;;;;;;5037716;28;20041;-61
2022/08/24 06:54:01;;;;;;;22.20;21.00;;;;;;;;;;5036389;28;20025;-61
2022/08/24 06:56:27;;;;;;;19.88;18.75;;;;;;;;;;5036649;28;20470;-61
2022/08/24 06:58:52;;;;;;;18.33;17.30;;;;;;;;;;5037618;28;20627;-61
2022/08/24 07:01:21;;;;;;;23.38;21.40;;;;;;;;;;5033278;28;20562;-61
2022/08/24 07:03:46;;;;;;;22.05;20.85;;;;;;;;;;5035706;28;20117;-61
2022/08/24 07:06:13;;;;;;;22.00;20.73;;;;;;;;;;5038746;28;20115;-61
2022/08/24 07:08:41;;;;;;;21.88;20.67;;;;;;;;;;5036706;28;20037;-62
2022/08/24 07:11:08;;;;;;;16.52;15.63;;;;;;;;;;5034044;28;20650;-61
2022/08/24 07:13:33;;;;;;;16.35;15.35;;;;;;;;;;5035550;28;20510;-61
2022/08/24 07:15:59;;;;;;;14.38;13.57;;;;;;;;;;5038880;28;20059;-61
2022/08/24 07:18:25;;;;;;;10.40;9.70;;;;;;;;;;5035465;28;20017;-59
2022/08/24 07:20:51;;;;;;;10.05;9.45;;;;;;;;;;5036222;28;20029;-63
2022/08/24 07:23:17;;;;;;;9.45;8.85;;;;;;;;;;5030476;28;20040;-61
2022/08/24 07:25:44;;;;;;;9.00;8.40;;;;;;;;;;5036223;28;20071;-61
2022/08/24 07:28:11;;;;;;;12.15;11.45;;;;;;;;;;5034331;28;20067;-59
2022/08/24 07:30:38;;;;;;;8.35;7.85;;;;;;;;;;5034579;28;20037;-61
2022/08/24 07:33:04;;;;;;;8.02;7.45;;;;;;;;;;5035312;28;20047;-59
2022/08/24 07:35:31;;;;;;;8.77;8.20;;;;;;;;;;5032260;28;20677;-61
2022/08/24 07:37:57;;;;;;;10.02;9.43;;;;;;;;;;5032439;28;20586;-58
2022/08/24 07:40:25;;;;;;;11.57;10.77;;;;;;;;;;5034736;28;20033;-58
2022/08/24 07:42:52;;;;;;;10.50;9.82;;;;;;;;;;5034775;28;20033;-60
2022/08/24 07:45:18;;;;;;;12.05;11.35;;;;;;;;;;5034406;28;20029;-59
2022/08/24 07:47:44;;;;;;;8.30;7.80;;;;;;;;;;5030722;28;20041;-59
2022/08/24 07:50:12;;;;;;;11.15;10.45;;;;;;;;;;5036981;28;20033;-60
2022/08/24 07:52:37;;;;;;;12.45;11.65;;;;;;;;;;5032929;28;20091;-59
2022/08/24 07:55:04;;;;;;;10.32;9.73;;;;;;;;;;5036501;28;20641;-60
2022/08/24 07:57:30;;;;;;;15.27;14.40;;;;;;;;;;5034915;28;20025;-61
2022/08/24 07:59:58;;;;;;;17.83;16.83;;;;;;;;;;5034388;28;20099;-61
2022/08/24 08:02:23;;;;;;;17.77;16.73;;;;;;;;;;5034554;28;20037;-61
2022/08/24 08:04:48;;;;;;;19.33;18.25;;;;;;;;;;5033878;28;20552;-62
2022/08/24 08:07:16;;;;;;;17.40;16.40;;;;;;;;;;5043069;28;20501;-62
2022/08/24 08:09:41;;;;;;;31.15;29.52;;;;;;;;;;5033896;28;20041;-61
2022/08/24 08:12:07;;;;;;;19.52;18.42;;;;;;;;;;5032018;28;20044;-61
2022/08/24 08:14:33;;;;;;;18.85;17.83;;;;;;;;;;5034639;28;20084;-61
2022/08/24 08:16:59;;;;;;;18.00;17.00;;;;;;;;;;5033887;28;20033;-61
2022/08/24 08:19:24;;;;;;;23.27;22.00;;;;;;;;;;5031751;28;20400;-61
2022/08/24 08:24:41;;;;;;;83.38;79.22;;;;;;;;;;5034635;28;20037;-61
2022/08/24 08:27:07;;;;;;;34.78;32.97;;;;;;;;;;5036655;28;20024;-60
2022/08/24 08:29:33;;;;;;;73.63;69.95;;;;;;;;;;5032217;28;20029;-61
2022/08/24 08:31:59;;;;;;;55.35;52.58;;;;;;;;;;5031560;28;20076;-61
2022/08/24 08:34:25;;;;;;;41.35;39.25;;;;;;;;;;5031040;28;20034;-61
2022/08/24 08:36:51;;;;;;;87.75;83.38;;;;;;;;;;5035190;28;20042;-58
2022/08/24 08:39:18;;;;;;;93.63;88.93;;;;;;;;;;5036626;28;20082;-61
2022/08/24 08:42:21;;;;;;;59.50;56.47;;;;;;;;;;5032019;28;20054;-61
2022/08/24 08:45:06;;;;;;;70.25;66.70;;;;;;;;;;5037748;28;20491;-61
2022/08/24 08:47:48;;;;;;;63.33;60.15;;;;;;;;;;5035185;28;20043;-61
2022/08/24 08:50:20;;;;;;;75.25;71.50;;;;;;;;;;5036432;28;20029;-61
2022/08/24 08:53:01;;;;;;;53.05;50.35;;;;;;;;;;5034416;28;20439;-61
2022/08/24 08:56:00;;;;;;;163.73;155.48;;;;;;;;;;5036254;28;20052;-61
2022/08/24 08:58:47;;;;;;;77.93;74.07;;;;;;;;;;5018550;28;20037;-61
2022/08/24 09:01:47;;;;;;;85.72;81.43;;;;;;;;;;5035692;28;20105;-61
2022/08/24 09:04:39;;;;;;;53.80;51.10;;;;;;;;;;5032301;28;20634;-61
2022/08/24 09:07:39;;;;;;;79.30;75.22;;;;;;;;;;5035373;28;20107;-61
2022/08/24 09:10:27;;;;;;;73.95;70.22;;;;;;;;;;5033729;28;20029;-61
2022/08/24 09:13:11;;;;;;;69.53;66.03;;;;;;;;;;5032769;28;20685;-61
2022/08/24 09:15:52;;;;;;;52.25;49.60;;;;;;;;;;5030392;28;20056;-61
2022/08/24 09:18:48;;;;;;;157.88;150.00;;;;;;;;;;5031746;28;20025;-61
2022/08/24 09:21:40;;;;;;;199.23;189.27;;;;;;;;;;5033947;28;20050;-61
2022/08/24 09:24:38;;;;;;;72.13;68.50;;;;;;;;;;5033121;28;20437;-61
2022/08/24 09:27:19;;;;;;;135.57;128.77;;;;;;;;;;5037730;28;20510;-61
2022/08/24 09:30:10;;;;;;;61.95;58.85;;;;;;;;;;5035662;28;20041;-61
2022/08/24 09:32:41;;;;;;;204.52;194.20;;;;;;;;;;5038650;28;20398;-61
2022/08/24 09:35:16;;;;;;;227.13;215.77;;;;;;;;;;5037437;28;20026;-60
2022/08/24 09:38:15;;;;;;;149.40;141.93;;;;;;;;;;5036435;28;20033;-61
2022/08/24 09:40:55;;;;;;;332.95;315.92;;;;;;;;;;5040087;28;20533;-61
2022/08/24 09:43:50;;;;;;;91.82;87.20;;;;;;;;;;5033932;28;20053;-61
2022/08/24 09:46:39;;;;;;;318.88;302.58;;;;;;;;;;5035506;28;20044;-60
2022/08/24 09:49:21;;;;;;;320.65;304.30;;;;;;;;;;5053589;28;20418;-61
2022/08/24 09:52:08;;;;;;;414.63;392.60;;;;;;;;;;5036237;28;20109;-61
2022/08/24 09:54:42;;;;;;;434.80;411.55;;;;;;;;;;5039005;28;20120;-60
2022/08/24 09:57:37;;;;;;;416.95;394.67;;;;;;;;;;5037112;28;20132;-61
2022/08/24 10:00:12;;;;;;;394.42;373.67;;;;;;;;;;5036153;28;20028;-60
2022/08/24 10:02:56;;;;;;;479.83;453.27;;;;;;;;;;5036092;28;20100;-60
2022/08/24 10:05:25;;;;;;;456.10;431.42;;;;;;;;;;5037137;28;20041;-60
2022/08/24 10:08:02;;;;;;;507.27;479.08;;;;;;;;;;5036576;28;20045;-60
2022/08/24 10:10:39;;;;;;;509.98;481.48;;;;;;;;;;5037219;28;20071;-60
2022/08/24 10:13:26;;;;;;;512.55;483.55;;;;;;;;;;5037042;28;20032;-60
2022/08/24 10:16:29;;;;;;;497.80;470.00;;;;;;;;;;5034622;28;20065;-60
2022/08/24 10:19:24;;;;;;;461.25;436.05;;;;;;;;;;5035049;28;20120;-60
2022/08/24 10:22:17;;;;;;;399.92;379.27;;;;;;;;;;5033240;28;20026;-60
2022/08/24 10:25:01;;;;;;;424.33;402.00;;;;;;;;;;5033237;28;20029;-60
2022/08/24 10:27:49;;;;;;;477.70;451.00;;;;;;;;;;5035082;28;20494;-61
2022/08/24 10:30:53;;;;;;;490.60;463.58;;;;;;;;;;5035318;28;20030;-60
2022/08/24 10:33:27;;;;;;;418.35;396.52;;;;;;;;;;5037914;28;20037;-60
2022/08/24 10:36:10;;;;;;;437.17;414.08;;;;;;;;;;5036430;28;20044;-60
2022/08/24 10:41:59;;;;;;;263.15;250.27;;;;;;;;;;5041643;28;20502;-60
2022/08/24 10:44:39;;;;;;;227.90;216.73;;;;;;;;;;5039612;28;20044;-60
2022/08/24 10:47:10;;;;;;;233.15;221.65;;;;;;;;;;5034344;28;20114;-60
2022/08/24 10:49:36;;;;;;;159.25;151.32;;;;;;;;;;5035380;28;20075;-61
2022/08/24 10:52:38;;;;;;;142.35;135.30;;;;;;;;;;5039789;28;20033;-60
2022/08/24 10:55:25;;;;;;;186.82;177.73;;;;;;;;;;5033560;28;20092;-60
2022/08/24 10:58:12;;;;;;;230.70;219.43;;;;;;;;;;5032139;28;20061;-60
2022/08/24 11:00:39;;;;;;;157.90;150.15;;;;;;;;;;5032213;28;20153;-60
2022/08/24 11:03:25;;;;;;;198.82;189.10;;;;;;;;;;5034392;28;20140;-60
2022/08/24 11:05:54;;;;;;;487.88;460.95;;;;;;;;;;5033029;28;20192;-60
2022/08/24 11:08:28;;;;;;;212.38;201.93;;;;;;;;;;5035208;28;20029;-60
2022/08/24 11:11:08;;;;;;;151.75;144.25;;;;;;;;;;5035994;28;20064;-60
2022/08/24 11:13:35;;;;;;;;;;;;;;;;;;5036834;28;20037;-60
2022/08/24 11:16:02;;;;;;;164.50;156.45;;;;;;;;;;5036709;28;19966;-60
2022/08/24 11:19:01;;;;;;;194.93;185.40;;;;;;;;;;5032300;28;20171;-61
2022/08/24 11:21:37;;;;;;;164.02;155.98;;;;;;;;;;4994217;28;20444;-60
2022/08/24 11:24:12;;;;;;;207.05;196.95;;;;;;;;;;5036814;28;20044;-60
2022/08/24 11:26:50;;;;;;;141.27;134.23;;;;;;;;;;5032188;28;20037;-60
2022/08/24 11:29:15;;;;;;;125.35;119.15;;;;;;;;;;5034335;28;20033;-60
2022/08/24 11:31:43;;;;;;;128.18;121.88;;;;;;;;;;5033105;28;20111;-60
2022/08/24 11:34:15;;;;;;;129.48;123.10;;;;;;;;;;5033972;28;20513;-62
2022/08/24 11:36:41;;;;;;;127.95;121.65;;;;;;;;;;5030300;28;20053;-59
2022/08/24 11:39:15;;;;;;;116.07;110.32;;;;;;;;;;5033637;28;20072;-59
2022/08/24 11:41:59;;;;;;;125.50;119.32;;;;;;;;;;5034797;28;20029;-58
2022/08/24 11:44:42;;;;;;;132.75;126.18;;;;;;;;;;5032478;28;20021;-61
2022/08/24 11:47:22;;;;;;;113.75;108.05;;;;;;;;;;5035313;28;20646;-59
2022/08/24 11:50:09;;;;;;;122.53;116.45;;;;;;;;;;5040807;28;20053;-59
2022/08/24 11:52:53;;;;;;;145.63;138.43;;;;;;;;;;5034533;28;20033;-59
2022/08/24 11:55:31;;;;;;;117.10;111.32;;;;;;;;;;5035013;28;20029;-60
2022/08/24 11:58:31;;;;;;;123.65;117.53;;;;;;;;;;5033489;28;20600;-59
2022/08/24 12:01:26;;;;;;;158.60;150.77;;;;;;;;;;5037167;28;20033;-59
2022/08/24 12:04:18;;;;;;;127.65;121.35;;;;;;;;;;5036129;28;20048;-58
2022/08/24 12:07:08;;;;;;;129.07;122.70;;;;;;;;;;5030473;28;20037;-59
2022/08/24 12:09:48;;;;;;;113.75;107.90;;;;;;;;;;5034758;28;20034;-59
2022/08/24 12:12:26;;;;;;;121.53;115.53;;;;;;;;;;5033011;28;20033;-59
2022/08/24 12:14:59;;;;;;;132.30;125.78;;;;;;;;;;5031835;28;20029;-59
2022/08/24 12:17:44;;;;;;;146.45;139.20;;;;;;;;;;5031024;28;20045;-59
2022/08/24 12:20:30;;;;;;;128.63;122.25;;;;;;;;;;5034665;28;20043;-59
2022/08/24 12:23:01;;;;;;;103.80;98.68;;;;;;;;;;5035041;28;20041;-58
2022/08/24 12:28:21;;;;;;;102.22;97.07;;;;;;;;;;5034251;28;20435;-58
2022/08/24 12:30:48;;;;;;;135.80;129.02;;;;;;;;;;5035201;28;20021;-58
2022/08/24 12:33:17;;;;;;;99.72;94.82;;;;;;;;;;5032387;28;20136;-64
2022/08/24 12:35:48;;;;;;;80.47;76.47;;;;;;;;;;5034076;28;20524;-59
2022/08/24 12:38:37;;;;;;;90.97;86.47;;;;;;;;;;5032017;28;20541;-58
2022/08/24 12:41:18;;;;;;;91.13;86.63;;;;;;;;;;5035910;28;20045;-59
2022/08/24 12:43:58;;;;;;;68.93;65.47;;;;;;;;;;5036920;28;20033;-59
2022/08/24 12:46:25;;;;;;;51.67;49.08;;;;;;;;;;5029868;28;20040;-58
2022/08/24 12:49:03;;;;;;;75.10;71.38;;;;;;;;;;5035143;28;20427;-59
2022/08/24 12:51:49;;;;;;;91.82;87.30;;;;;;;;;;5034244;28;20053;-58
2022/08/24 12:54:45;;;;;;;74.50;70.80;;;;;;;;;;5028822;28;20090;-58
2022/08/24 12:57:48;;;;;;;86.22;81.93;;;;;;;;;;5033137;28;20048;-58
2022/08/24 13:00:30;;;;;;;80.68;76.68;;;;;;;;;;5035375;28;20040;-60
2022/08/24 13:03:00;;;;;;;73.20;69.55;;;;;;;;;;5033058;28;20523;-60
2022/08/24 13:05:39;;;;;;;71.65;67.90;;;;;;;;;;5036090;28;20131;-61
2022/08/24 13:08:11;;;;;;;56.17;53.33;;;;;;;;;;5040672;28;20041;-58
2022/08/24 13:10:43;;;;;;;84.63;80.45;;;;;;;;;;5038691;28;20047;-60
2022/08/24 13:13:13;;;;;;;72.25;68.47;;;;;;;;;;5037031;28;20039;-59
2022/08/24 13:15:52;;;;;;;58.33;55.38;;;;;;;;;;5037800;28;20462;-59
2022/08/24 13:18:17;;;;;;;74.35;70.65;;;;;;;;;;5035433;28;20037;-59
2022/08/24 13:20:42;;;;;;;49.60;47.00;;;;;;;;;;5037277;28;20098;-58
2022/08/24 13:23:14;;;;;;;88.72;84.35;;;;;;;;;;5033500;28;20119;-58
2022/08/24 13:25:41;;;;;;;58.10;55.10;;;;;;;;;;5037488;28;20111;-58
2022/08/24 13:28:25;;;;;;;52.90;50.20;;;;;;;;;;5038881;28;20608;-59
2022/08/24 13:31:01;;;;;;;70.45;66.90;;;;;;;;;;5038302;28;20072;-59
2022/08/24 13:33:41;;;;;;;53.03;50.35;;;;;;;;;;5036922;28;20459;-60
2022/08/24 13:36:44;;;;;;;63.58;60.40;;;;;;;;;;5037314;28;20037;-59
2022/08/24 13:39:43;;;;;;;66.78;63.38;;;;;;;;;;5036091;28;20065;-59
2022/08/24 13:42:22;;;;;;;62.55;59.42;;;;;;;;;;5039368;28;20036;-59
2022/08/24 13:44:50;;;;;;;63.65;60.47;;;;;;;;;;5037772;28;20041;-59
2022/08/24 13:47:18;;;;;;;52.28;49.47;;;;;;;;;;5037117;28;20112;-59
2022/08/24 13:50:01;;;;;;;54.60;51.78;;;;;;;;;;5036422;28;20033;-59
2022/08/24 13:52:36;;;;;;;54.20;51.40;;;;;;;;;;5037383;28;20352;-59
2022/08/24 13:55:42;;;;;;;51.47;48.88;;;;;;;;;;5039387;28;20037;-58
2022/08/24 13:58:30;;;;;;;36.03;34.17;;;;;;;;;;5032852;28;20047;-59
2022/08/24 14:01:22;;;;;;;39.47;37.47;;;;;;;;;;5032480;28;20184;-60
2022/08/24 14:04:00;;;;;;;31.52;29.92;;;;;;;;;;5037028;28;20239;-58
2022/08/24 14:06:35;;;;;;;40.22;38.17;;;;;;;;;;5040641;28;20036;-58
2022/08/24 14:09:30;;;;;;;33.38;31.67;;;;;;;;;;5036899;28;20456;-59
2022/08/24 14:12:17;;;;;;;31.83;30.20;;;;;;;;;;5037832;28;20049;-61
2022/08/24 14:15:11;;;;;;;38.20;36.22;;;;;;;;;;5037727;28;20053;-59
2022/08/24 14:18:02;;;;;;;52.42;49.80;;;;;;;;;;5036999;28;20097;-59
2022/08/24 14:20:58;;;;;;;67.15;63.80;;;;;;;;;;5035112;28;20507;-58
2022/08/24 14:23:44;;;;;;;56.88;54.05;;;;;;;;;;5038897;28;20818;-61
2022/08/24 14:26:29;;;;;;;37.15;35.15;;;;;;;;;;5038939;28;20061;-58
2022/08/24 14:29:14;;;;;;;39.15;37.15;;;;;;;;;;5036892;28;20152;-60
2022/08/24 14:32:04;;;;;;;46.20;43.80;;;;;;;;;;5045387;28;20036;-59
2022/08/24 14:34:40;;;;;;;57.65;54.75;;;;;;;;;;5037409;28;20079;-58
2022/08/24 14:37:12;;;;;;;56.45;53.65;;;;;;;;;;5037953;28;20039;-59
2022/08/24 14:39:40;;;;;;;45.20;42.83;;;;;;;;;;5036650;28;20143;-58
2022/08/24 14:42:20;;;;;;;35.28;33.45;;;;;;;;;;5040712;28;20037;-61
2022/08/24 14:45:01;;;;;;;57.17;54.30;;;;;;;;;;5035908;28;20133;-59
2022/08/24 14:48:07;;;;;;;76.13;72.35;;;;;;;;;;5036987;28;20087;-59
2022/08/24 14:50:48;;;;;;;71.40;67.90;;;;;;;;;;5044213;28;20053;-60
2022/08/24 14:53:32;;;;;;;38.20;36.25;;;;;;;;;;5037057;28;20475;-58
2022/08/24 14:56:10;;;;;;;44.58;42.35;;;;;;;;;;5036514;28;20041;-58
2022/08/24 14:59:03;;;;;;;32.15;30.50;;;;;;;;;;5038196;28;20139;-58
2022/08/24 15:01:42;;;;;;;36.53;34.65;;;;;;;;;;5035476;28;20040;-59